createdAt,value
2018-07-22T00:00:41.471Z,20.303955
2018-07-22T00:01:57.398Z,20.334167
2018-07-22T00:03:13.297Z,20.324097
2018-07-22T00:04:29.226Z,20.273743
2018-07-22T00:05:45.149Z,20.303955
2018-07-22T00:07:01.055Z,20.344238
2018-07-22T00:08:16.951Z,20.394592
2018-07-22T00:09:32.836Z,20.455017
2018-07-22T00:10:48.763Z,20.444946
2018-07-22T00:12:04.662Z,20.525513
2018-07-22T00:13:20.570Z,20.515442
2018-07-22T00:14:36.492Z,20.475159
2018-07-22T00:15:52.357Z,20.424805
2018-07-22T00:17:08.224Z,20.444946
2018-07-22T00:18:24.148Z,20.36438
2018-07-22T00:19:40.035Z,20.303955
2018-07-22T00:20:55.943Z,20.324097
2018-07-22T00:22:11.834Z,20.475159
2018-07-22T00:23:27.780Z,20.626221
2018-07-22T00:24:43.663Z,20.515442
2018-07-22T00:25:59.592Z,20.485229
2018-07-22T00:27:15.478Z,20.324097
2018-07-22T00:28:31.375Z,20.475159
2018-07-22T00:29:47.296Z,20.4953
2018-07-22T00:31:03.205Z,20.585938
2018-07-22T00:32:19.112Z,20.596008
2018-07-22T00:33:35.004Z,20.575867
2018-07-22T00:34:50.939Z,20.555725
2018-07-22T00:36:06.876Z,20.525513
2018-07-22T00:37:22.784Z,20.444946
2018-07-22T00:38:38.710Z,20.4953
2018-07-22T00:39:54.632Z,20.545654
2018-07-22T00:41:10.575Z,20.525513
2018-07-22T00:42:26.461Z,20.424805
2018-07-22T00:43:42.353Z,20.424805
2018-07-22T00:44:58.256Z,20.485229
2018-07-22T00:46:14.119Z,20.4953
2018-07-22T00:47:29.996Z,20.455017
2018-07-22T00:48:45.882Z,20.36438
2018-07-22T00:50:01.863Z,20.334167
2018-07-22T00:51:17.769Z,20.394592
2018-07-22T00:52:33.704Z,20.404663
2018-07-22T00:53:49.593Z,20.515442
2018-07-22T00:55:05.539Z,20.444946
2018-07-22T00:56:21.413Z,20.455017
2018-07-22T00:57:37.324Z,20.475159
2018-07-22T00:58:53.243Z,20.525513
2018-07-22T01:00:09.280Z,20.585938
2018-07-22T01:01:25.026Z,20.626221
2018-07-22T01:02:40.992Z,20.585938
2018-07-22T01:03:56.936Z,20.555725
2018-07-22T01:05:12.851Z,20.636292
2018-07-22T01:06:28.796Z,20.706787
2018-07-22T01:07:44.664Z,20.656433
2018-07-22T01:09:00.564Z,20.626221
2018-07-22T01:10:16.493Z,20.666504
2018-07-22T01:11:32.394Z,20.626221
2018-07-22T01:12:48.295Z,20.585938
2018-07-22T01:14:04.193Z,20.575867
2018-07-22T01:15:20.154Z,20.575867
2018-07-22T01:16:36.045Z,20.515442
2018-07-22T01:17:51.939Z,20.545654
2018-07-22T01:19:07.902Z,20.4953
2018-07-22T01:20:23.820Z,20.4953
2018-07-22T01:21:39.696Z,20.4953
2018-07-22T01:22:55.605Z,20.575867
2018-07-22T01:24:11.519Z,20.666504
2018-07-22T01:25:27.434Z,20.656433
2018-07-22T01:26:43.397Z,20.666504
2018-07-22T01:27:59.344Z,20.726929
2018-07-22T01:29:15.260Z,20.596008
2018-07-22T01:30:31.161Z,20.596008
2018-07-22T01:31:47.066Z,20.585938
2018-07-22T01:33:02.961Z,20.585938
2018-07-22T01:34:18.892Z,20.666504
2018-07-22T01:35:34.806Z,20.626221
2018-07-22T01:36:50.713Z,20.626221
2018-07-22T01:38:06.601Z,20.596008
2018-07-22T01:39:22.558Z,20.676575
2018-07-22T01:40:38.504Z,20.585938
2018-07-22T01:41:54.386Z,20.4953
2018-07-22T01:43:10.317Z,20.515442
2018-07-22T01:44:26.198Z,20.596008
2018-07-22T01:45:42.102Z,20.676575
2018-07-22T01:46:57.995Z,20.545654
2018-07-22T01:48:13.924Z,20.545654
2018-07-22T01:49:29.832Z,20.636292
2018-07-22T01:50:45.741Z,20.636292
2018-07-22T01:52:01.655Z,20.626221
2018-07-22T01:53:17.594Z,20.696716
2018-07-22T01:54:33.478Z,20.666504
2018-07-22T01:55:49.336Z,20.636292
2018-07-22T01:57:05.223Z,20.666504
2018-07-22T01:58:21.185Z,20.666504
2018-07-22T01:59:37.108Z,20.706787
2018-07-22T02:00:53.031Z,20.706787
2018-07-22T02:02:08.922Z,20.676575
2018-07-22T02:03:24.853Z,20.676575
2018-07-22T02:04:40.790Z,20.626221
2018-07-22T02:05:56.715Z,20.4953
2018-07-22T02:07:12.596Z,20.525513
2018-07-22T02:08:28.471Z,20.525513
2018-07-22T02:09:44.408Z,20.525513
2018-07-22T02:11:00.292Z,20.555725
2018-07-22T02:12:16.279Z,20.515442
2018-07-22T02:13:33.110Z,20.525513
2018-07-22T02:14:49.033Z,20.656433
2018-07-22T02:16:04.950Z,20.726929
2018-07-22T02:17:20.848Z,20.4953
2018-07-22T02:18:36.760Z,20.424805
2018-07-22T02:19:52.689Z,20.404663
2018-07-22T02:21:08.646Z,20.475159
2018-07-22T02:22:24.551Z,20.545654
2018-07-22T02:23:40.419Z,20.575867
2018-07-22T02:24:56.274Z,20.485229
2018-07-22T02:26:12.163Z,20.485229
2018-07-22T02:27:28.030Z,20.575867
2018-07-22T02:28:43.878Z,20.585938
2018-07-22T02:29:59.751Z,20.636292
2018-07-22T02:31:15.771Z,20.515442
2018-07-22T02:32:31.683Z,20.4953
2018-07-22T02:33:47.584Z,20.555725
2018-07-22T02:35:03.465Z,20.4953
2018-07-22T02:36:19.368Z,20.404663
2018-07-22T02:37:35.326Z,20.485229
2018-07-22T02:38:51.219Z,20.4953
2018-07-22T02:40:07.096Z,20.515442
2018-07-22T02:41:22.964Z,20.4953
2018-07-22T02:42:38.901Z,20.525513
2018-07-22T02:43:54.782Z,20.525513
2018-07-22T02:45:10.703Z,20.525513
2018-07-22T02:46:26.650Z,20.515442
2018-07-22T02:47:42.561Z,20.334167
2018-07-22T02:48:58.454Z,20.394592
2018-07-22T02:50:14.346Z,20.374451
2018-07-22T02:51:30.307Z,20.324097
2018-07-22T02:52:46.295Z,20.404663
2018-07-22T02:54:02.219Z,20.404663
2018-07-22T02:55:18.118Z,20.344238
2018-07-22T02:56:33.999Z,20.293884
2018-07-22T02:57:49.893Z,20.344238
2018-07-22T02:59:05.797Z,20.404663
2018-07-22T03:00:21.674Z,20.394592
2018-07-22T03:01:37.560Z,20.36438
2018-07-22T03:02:53.483Z,20.303955
2018-07-22T03:04:09.362Z,20.273743
2018-07-22T03:05:25.238Z,20.36438
2018-07-22T03:06:41.187Z,20.374451
2018-07-22T03:07:57.971Z,20.273743
2018-07-22T03:09:13.872Z,20.263672
2018-07-22T03:10:29.771Z,20.263672
2018-07-22T03:11:45.691Z,20.213318
2018-07-22T03:13:01.616Z,20.273743
2018-07-22T03:14:17.537Z,20.193176
2018-07-22T03:15:33.428Z,20.213318
2018-07-22T03:16:49.311Z,20.303955
2018-07-22T03:18:05.209Z,20.193176
2018-07-22T03:19:21.128Z,20.122681
2018-07-22T03:20:37.029Z,20.183105
2018-07-22T03:21:52.899Z,20.193176
2018-07-22T03:23:08.819Z,20.183105
2018-07-22T03:24:24.718Z,20.173035
2018-07-22T03:25:40.615Z,20.223389
2018-07-22T03:26:56.500Z,20.122681
2018-07-22T03:28:12.398Z,20.152893
2018-07-22T03:29:28.313Z,20.223389
2018-07-22T03:30:44.212Z,20.303955
2018-07-22T03:32:00.113Z,20.334167
2018-07-22T03:33:15.994Z,20.324097
2018-07-22T03:34:31.921Z,20.24353
2018-07-22T03:35:47.785Z,20.273743
2018-07-22T03:37:03.690Z,20.344238
2018-07-22T03:38:19.588Z,20.344238
2018-07-22T03:39:35.456Z,20.36438
2018-07-22T03:40:51.464Z,20.263672
2018-07-22T03:42:07.373Z,20.263672
2018-07-22T03:43:23.270Z,20.273743
2018-07-22T03:44:39.154Z,20.334167
2018-07-22T03:45:55.066Z,20.303955
2018-07-22T03:47:11.014Z,20.324097
2018-07-22T03:48:26.941Z,20.36438
2018-07-22T03:49:42.883Z,20.183105
2018-07-22T03:50:58.759Z,20.102539
2018-07-22T03:52:15.716Z,20.183105
2018-07-22T03:53:31.548Z,20.24353
2018-07-22T03:54:47.436Z,20.293884
2018-07-22T03:56:03.319Z,20.303955
2018-07-22T03:57:19.300Z,20.263672
2018-07-22T03:58:35.169Z,20.273743
2018-07-22T03:59:51.056Z,20.334167
2018-07-22T04:01:06.950Z,20.344238
2018-07-22T04:02:22.886Z,20.324097
2018-07-22T04:03:38.789Z,20.374451
2018-07-22T04:04:54.672Z,20.303955
2018-07-22T04:06:10.647Z,20.122681
2018-07-22T04:07:26.585Z,20.11261
2018-07-22T04:08:42.535Z,20.102539
2018-07-22T04:09:58.447Z,20.11261
2018-07-22T04:11:14.409Z,20.072327
2018-07-22T04:12:30.346Z,20.032043
2018-07-22T04:13:46.257Z,20.021973
2018-07-22T04:15:02.141Z,20.032043
2018-07-22T04:16:18.018Z,19.99176
2018-07-22T04:17:33.913Z,20.032043
2018-07-22T04:18:49.787Z,20.102539
2018-07-22T04:20:05.734Z,20.072327
2018-07-22T04:21:21.659Z,20.11261
2018-07-22T04:22:37.562Z,20.082397
2018-07-22T04:23:53.463Z,20.102539
2018-07-22T04:25:09.369Z,20.193176
2018-07-22T04:26:25.281Z,20.183105
2018-07-22T04:27:41.162Z,20.223389
2018-07-22T04:28:57.112Z,20.293884
2018-07-22T04:30:12.994Z,20.293884
2018-07-22T04:31:28.931Z,20.324097
2018-07-22T04:32:44.836Z,20.324097
2018-07-22T04:34:00.704Z,20.334167
2018-07-22T04:35:16.614Z,20.263672
2018-07-22T04:36:32.513Z,20.263672
2018-07-22T04:37:48.550Z,20.273743
2018-07-22T04:39:04.437Z,20.374451
2018-07-22T04:40:20.321Z,20.293884
2018-07-22T04:41:36.389Z,20.273743
2018-07-22T04:42:52.310Z,20.273743
2018-07-22T04:44:08.223Z,20.173035
2018-07-22T04:45:24.145Z,20.152893
2018-07-22T04:46:40.040Z,20.152893
2018-07-22T04:47:56.010Z,20.263672
2018-07-22T04:49:11.914Z,20.24353
2018-07-22T04:50:27.792Z,20.193176
2018-07-22T04:51:43.674Z,20.293884
2018-07-22T04:52:59.693Z,20.36438
2018-07-22T04:54:15.589Z,20.424805
2018-07-22T04:55:31.494Z,20.394592
2018-07-22T04:56:47.392Z,20.424805
2018-07-22T04:58:03.301Z,20.404663
2018-07-22T04:59:19.241Z,20.4953
2018-07-22T05:00:35.128Z,20.4953
2018-07-22T05:01:51.020Z,20.515442
2018-07-22T05:03:06.932Z,20.475159
2018-07-22T05:04:22.819Z,20.525513
2018-07-22T05:05:38.707Z,20.444946
2018-07-22T05:06:54.612Z,20.455017
2018-07-22T05:08:10.534Z,20.525513
2018-07-22T05:09:26.434Z,20.4953
2018-07-22T05:10:42.336Z,20.515442
2018-07-22T05:11:58.214Z,20.525513
2018-07-22T05:13:14.139Z,20.596008
2018-07-22T05:14:30.019Z,20.596008
2018-07-22T05:15:45.957Z,20.596008
2018-07-22T05:17:01.870Z,20.596008
2018-07-22T05:18:17.777Z,20.525513
2018-07-22T05:19:33.748Z,20.525513
2018-07-22T05:20:49.619Z,20.585938
2018-07-22T05:22:05.501Z,20.666504
2018-07-22T05:23:21.427Z,20.737
2018-07-22T05:24:37.345Z,20.777283
2018-07-22T05:25:53.229Z,20.817566
2018-07-22T05:27:09.129Z,20.74707
2018-07-22T05:28:25.197Z,20.666504
2018-07-22T05:29:41.020Z,20.656433
2018-07-22T05:30:56.973Z,20.696716
2018-07-22T05:32:12.855Z,20.666504
2018-07-22T05:33:28.751Z,20.797424
2018-07-22T05:34:44.675Z,20.777283
2018-07-22T05:36:00.578Z,20.817566
2018-07-22T05:37:16.449Z,20.877991
2018-07-22T05:38:32.378Z,20.928345
2018-07-22T05:39:48.339Z,20.978699
2018-07-22T05:41:04.274Z,20.857849
2018-07-22T05:42:20.214Z,20.928345
2018-07-22T05:43:36.159Z,20.918274
2018-07-22T05:44:52.119Z,20.877991
2018-07-22T05:46:08.060Z,20.817566
2018-07-22T05:47:24.026Z,20.797424
2018-07-22T05:48:39.929Z,20.847778
2018-07-22T05:49:55.895Z,20.918274
2018-07-22T05:51:11.789Z,20.877991
2018-07-22T05:52:27.699Z,20.877991
2018-07-22T05:53:43.626Z,21.008911
2018-07-22T05:54:59.520Z,20.958557
2018-07-22T05:56:15.412Z,20.898132
2018-07-22T05:57:31.317Z,20.99884
2018-07-22T05:58:47.254Z,21.008911
2018-07-22T06:00:03.204Z,21.008911
2018-07-22T06:01:19.109Z,21.139832
2018-07-22T06:02:35.186Z,20.958557
2018-07-22T06:03:51.108Z,20.726929
2018-07-22T06:05:07.056Z,20.666504
2018-07-22T06:06:23.004Z,20.666504
2018-07-22T06:07:38.921Z,20.706787
2018-07-22T06:08:55.870Z,20.797424
2018-07-22T06:10:11.862Z,20.857849
2018-07-22T06:11:27.835Z,20.948486
2018-07-22T06:12:43.815Z,21.008911
2018-07-22T06:13:59.702Z,21.049194
2018-07-22T06:15:15.570Z,21.008911
2018-07-22T06:16:31.508Z,21.029053
2018-07-22T06:17:47.434Z,21.039124
2018-07-22T06:19:03.518Z,20.928345
2018-07-22T06:20:19.549Z,20.857849
2018-07-22T06:21:35.491Z,20.877991
2018-07-22T06:22:51.452Z,20.958557
2018-07-22T06:24:07.369Z,21.039124
2018-07-22T06:25:23.288Z,21.079407
2018-07-22T06:26:39.214Z,21.149902
2018-07-22T06:27:55.151Z,21.220398
2018-07-22T06:29:11.041Z,21.331177
2018-07-22T06:30:27.007Z,21.431885
2018-07-22T06:31:43.053Z,21.200256
2018-07-22T06:32:58.997Z,21.220398
2018-07-22T06:34:14.940Z,21.079407
2018-07-22T06:35:30.821Z,21.170044
2018-07-22T06:36:46.718Z,21.008911
2018-07-22T06:38:02.611Z,20.857849
2018-07-22T06:39:18.487Z,20.877991
2018-07-22T06:40:34.377Z,20.958557
2018-07-22T06:41:50.332Z,21.008911
2018-07-22T06:43:06.318Z,21.129761
2018-07-22T06:44:22.256Z,21.190186
2018-07-22T06:45:38.166Z,21.25061
2018-07-22T06:46:54.188Z,21.331177
2018-07-22T06:48:10.153Z,21.37146
2018-07-22T06:49:26.125Z,21.321106
2018-07-22T06:50:42.063Z,21.149902
2018-07-22T06:51:57.999Z,21.220398
2018-07-22T06:53:13.942Z,21.260681
2018-07-22T06:54:29.908Z,21.260681
2018-07-22T06:55:45.838Z,21.300964
2018-07-22T06:57:01.785Z,21.280823
2018-07-22T06:58:17.681Z,21.139832
2018-07-22T06:59:33.675Z,21.069336
2018-07-22T07:00:49.672Z,20.74707
2018-07-22T07:02:05.637Z,20.585938
2018-07-22T07:03:21.531Z,20.696716
2018-07-22T07:04:37.490Z,20.515442
2018-07-22T07:05:53.470Z,20.636292
2018-07-22T07:07:09.441Z,20.74707
2018-07-22T07:08:26.460Z,20.596008
2018-07-22T07:09:42.618Z,20.636292
2018-07-22T07:10:58.756Z,20.726929
2018-07-22T07:12:14.746Z,20.817566
2018-07-22T07:13:30.676Z,20.696716
2018-07-22T07:14:46.607Z,20.817566
2018-07-22T07:16:02.518Z,21.069336
2018-07-22T07:17:18.468Z,21.099548
2018-07-22T07:18:34.406Z,21.099548
2018-07-22T07:19:50.411Z,21.170044
2018-07-22T07:21:06.334Z,21.25061
2018-07-22T07:22:22.300Z,21.401672
2018-07-22T07:23:38.212Z,21.452026
2018-07-22T07:24:54.139Z,21.482239
2018-07-22T07:26:10.325Z,21.37146
2018-07-22T07:27:26.230Z,21.381531
2018-07-22T07:28:43.148Z,21.230469
2018-07-22T07:29:59.039Z,21.149902
2018-07-22T07:31:14.972Z,21.351318
2018-07-22T07:32:30.942Z,21.431885
2018-07-22T07:33:46.902Z,21.482239
2018-07-22T07:35:02.830Z,21.562805
2018-07-22T07:36:18.845Z,21.37146
2018-07-22T07:37:34.807Z,21.25061
2018-07-22T07:38:50.755Z,21.139832
2018-07-22T07:40:06.712Z,21.25061
2018-07-22T07:41:22.617Z,21.260681
2018-07-22T07:42:38.564Z,21.381531
2018-07-22T07:43:54.548Z,21.472168
2018-07-22T07:45:10.495Z,21.582947
2018-07-22T07:46:26.412Z,21.633301
2018-07-22T07:47:42.373Z,21.603088
2018-07-22T07:48:58.286Z,21.62323
2018-07-22T07:50:14.803Z,21.633301
2018-07-22T07:51:31.019Z,21.603088
2018-07-22T07:52:47.002Z,21.683655
2018-07-22T07:54:02.931Z,21.653442
2018-07-22T07:55:18.843Z,21.593018
2018-07-22T07:56:34.764Z,21.25061
2018-07-22T07:57:50.685Z,21.321106
2018-07-22T07:59:07.158Z,21.381531
2018-07-22T08:00:24.541Z,21.401672
2018-07-22T08:01:40.443Z,21.472168
2018-07-22T08:02:56.353Z,21.321106
2018-07-22T08:04:12.290Z,21.321106
2018-07-22T08:05:28.214Z,21.50238
2018-07-22T08:06:44.189Z,21.562805
2018-07-22T08:08:00.107Z,21.542664
2018-07-22T08:09:16.038Z,21.542664
2018-07-22T08:10:32.060Z,21.663513
2018-07-22T08:11:48.007Z,21.542664
2018-07-22T08:13:04.053Z,21.532593
2018-07-22T08:14:20.118Z,21.472168
2018-07-22T08:15:36.072Z,21.190186
2018-07-22T08:16:52.079Z,21.190186
2018-07-22T08:18:08.030Z,20.918274
2018-07-22T08:19:24.029Z,20.978699
2018-07-22T08:20:40.011Z,20.99884
2018-07-22T08:21:56.125Z,21.170044
2018-07-22T08:23:12.175Z,21.280823
2018-07-22T08:24:28.118Z,21.331177
2018-07-22T08:25:44.481Z,21.381531
2018-07-22T08:27:00.403Z,21.381531
2018-07-22T08:28:16.426Z,21.441956
2018-07-22T08:29:32.630Z,21.452026
2018-07-22T08:30:48.716Z,21.401672
2018-07-22T08:32:04.633Z,21.401672
2018-07-22T08:33:20.588Z,21.482239
2018-07-22T08:34:36.557Z,21.290894
2018-07-22T08:35:52.673Z,21.25061
2018-07-22T08:37:08.622Z,21.411743
2018-07-22T08:38:24.617Z,21.542664
2018-07-22T08:39:40.594Z,21.653442
2018-07-22T08:40:56.491Z,21.603088
2018-07-22T08:42:12.433Z,21.683655
2018-07-22T08:43:27.399Z,21.693726
2018-07-22T08:44:43.371Z,21.62323
2018-07-22T08:45:59.334Z,21.603088
2018-07-22T08:47:15.222Z,21.582947
2018-07-22T08:48:31.254Z,21.512451
2018-07-22T08:49:47.477Z,21.62323
2018-07-22T08:51:03.471Z,21.703796
2018-07-22T08:52:19.392Z,21.723938
2018-07-22T08:53:35.291Z,21.683655
2018-07-22T08:54:51.216Z,21.603088
2018-07-22T08:56:07.147Z,21.512451
2018-07-22T08:57:23.193Z,21.411743
2018-07-22T08:58:39.174Z,21.472168
2018-07-22T08:59:55.197Z,21.542664
2018-07-22T09:02:51.578Z,21.401672
2018-07-22T09:04:07.538Z,21.431885
2018-07-22T09:05:23.522Z,21.441956
2018-07-22T09:06:39.460Z,21.472168
2018-07-22T09:07:55.398Z,21.401672
2018-07-22T09:09:11.321Z,21.381531
2018-07-22T09:10:27.293Z,21.401672
2018-07-22T09:11:43.312Z,21.401672
2018-07-22T09:12:59.647Z,21.401672
2018-07-22T09:14:15.681Z,21.431885
2018-07-22T09:15:31.704Z,21.472168
2018-07-22T09:16:47.646Z,21.452026
2018-07-22T09:18:03.752Z,21.452026
2018-07-22T09:19:19.664Z,21.50238
2018-07-22T09:20:35.739Z,21.411743
2018-07-22T09:21:51.703Z,21.452026
2018-07-22T09:23:07.622Z,21.411743
2018-07-22T09:24:23.622Z,21.411743
2018-07-22T09:25:39.586Z,21.401672
2018-07-22T09:26:55.552Z,21.431885
2018-07-22T09:28:11.517Z,21.411743
2018-07-22T09:29:27.434Z,21.401672
2018-07-22T09:30:43.418Z,21.411743
2018-07-22T09:31:59.476Z,21.472168
2018-07-22T09:33:15.503Z,21.582947
2018-07-22T09:34:31.477Z,21.62323
2018-07-22T09:35:47.633Z,21.593018
2018-07-22T09:37:03.666Z,21.593018
2018-07-22T09:38:19.696Z,21.482239
2018-07-22T09:39:36.042Z,21.37146
2018-07-22T09:40:52.335Z,21.431885
2018-07-22T09:42:08.370Z,21.472168
2018-07-22T09:43:24.418Z,21.482239
2018-07-22T09:44:40.400Z,21.512451
2018-07-22T09:45:56.343Z,21.593018
2018-07-22T09:47:12.365Z,21.542664
2018-07-22T09:48:28.412Z,21.482239
2018-07-22T09:49:44.455Z,21.431885
2018-07-22T09:51:00.873Z,21.431885
2018-07-22T09:52:16.885Z,21.50238
2018-07-22T09:53:32.856Z,21.50238
2018-07-22T09:54:48.866Z,21.593018
2018-07-22T09:56:04.818Z,21.593018
2018-07-22T09:57:20.821Z,21.633301
2018-07-22T09:58:37.036Z,21.512451
2018-07-22T09:59:52.879Z,21.472168
2018-07-22T10:01:08.899Z,21.512451
2018-07-22T10:02:24.893Z,21.683655
2018-07-22T10:03:40.862Z,21.703796
2018-07-22T10:04:56.829Z,21.683655
2018-07-22T10:06:12.777Z,21.593018
2018-07-22T10:07:28.731Z,21.62323
2018-07-22T10:08:44.912Z,21.693726
2018-07-22T10:10:00.902Z,21.653442
2018-07-22T10:11:16.909Z,21.62323
2018-07-22T10:12:32.836Z,21.62323
2018-07-22T10:13:48.952Z,21.603088
2018-07-22T10:15:04.897Z,21.683655
2018-07-22T10:16:20.882Z,21.683655
2018-07-22T10:17:36.932Z,21.75415
2018-07-22T10:18:52.881Z,21.844788
2018-07-22T10:20:08.862Z,21.804504
2018-07-22T10:23:05.394Z,21.875
2018-07-22T10:24:21.410Z,21.905212
2018-07-22T10:27:18.223Z,22.076416
2018-07-22T10:28:34.248Z,22.207336
2018-07-22T10:29:50.247Z,22.358398
2018-07-22T10:31:06.236Z,22.398682
2018-07-22T10:32:22.198Z,22.459106
2018-07-22T10:33:38.199Z,22.368469
2018-07-22T10:34:54.166Z,22.187195
2018-07-22T10:36:10.100Z,22.297974
2018-07-22T10:37:26.088Z,22.428894
2018-07-22T10:38:42.067Z,22.428894
2018-07-22T10:41:38.815Z,22.428894
2018-07-22T10:42:54.784Z,22.489319
2018-07-22T10:44:10.796Z,22.559814
2018-07-22T10:45:26.819Z,22.438965
2018-07-22T10:46:42.754Z,22.368469
2018-07-22T10:47:58.790Z,22.459106
2018-07-22T10:49:14.817Z,22.559814
2018-07-22T10:50:30.853Z,22.650452
2018-07-22T10:51:46.817Z,22.469177
2018-07-22T10:53:02.737Z,22.519531
2018-07-22T10:54:18.756Z,22.37854
2018-07-22T10:55:34.761Z,22.368469
2018-07-22T10:56:50.730Z,22.368469
2018-07-22T10:58:06.863Z,22.529602
2018-07-22T10:59:23.035Z,22.489319
2018-07-22T11:00:39.183Z,22.438965
2018-07-22T11:01:55.192Z,22.398682
2018-07-22T11:03:11.235Z,22.297974
2018-07-22T11:04:27.365Z,22.156982
2018-07-22T11:05:43.353Z,21.99585
2018-07-22T11:06:59.320Z,21.854858
2018-07-22T11:08:15.370Z,21.703796
2018-07-22T11:09:31.647Z,21.784363
2018-07-22T11:10:47.570Z,21.875
2018-07-22T11:12:03.800Z,21.99585
2018-07-22T11:13:19.926Z,22.076416
2018-07-22T11:14:35.954Z,21.915283
2018-07-22T11:15:51.955Z,21.875
2018-07-22T11:17:08.070Z,22.00592
2018-07-22T11:18:24.101Z,22.187195
2018-07-22T11:19:40.167Z,22.136841
2018-07-22T11:20:56.338Z,22.227478
2018-07-22T11:22:12.315Z,22.146912
2018-07-22T11:23:28.339Z,21.99585
2018-07-22T11:24:44.315Z,22.066345
2018-07-22T11:26:00.316Z,22.146912
2018-07-22T11:27:16.424Z,22.187195
2018-07-22T11:28:32.435Z,22.187195
2018-07-22T11:29:48.440Z,22.25769
2018-07-22T11:31:04.425Z,22.338257
2018-07-22T11:32:20.413Z,22.217407
2018-07-22T11:33:36.380Z,22.156982
2018-07-22T11:34:52.356Z,22.156982
2018-07-22T11:36:08.386Z,22.277832
2018-07-22T11:37:24.321Z,22.37854
2018-07-22T11:38:40.333Z,22.459106
2018-07-22T11:39:56.314Z,22.428894
2018-07-22T11:41:12.264Z,22.277832
2018-07-22T11:42:28.201Z,22.398682
2018-07-22T11:43:44.299Z,22.358398
2018-07-22T11:45:00.354Z,22.408752
2018-07-22T11:46:16.388Z,22.469177
2018-07-22T11:47:32.369Z,22.438965
2018-07-22T11:48:48.343Z,22.559814
2018-07-22T11:50:04.288Z,22.579956
2018-07-22T11:51:20.226Z,22.398682
2018-07-22T11:52:36.265Z,22.408752
2018-07-22T11:53:52.283Z,22.368469
2018-07-22T11:55:08.253Z,22.459106
2018-07-22T11:56:24.172Z,22.620239
2018-07-22T11:57:40.126Z,22.489319
2018-07-22T11:58:56.163Z,22.338257
2018-07-22T12:00:12.149Z,22.549744
2018-07-22T12:01:28.142Z,22.670593
2018-07-22T12:02:44.110Z,22.731018
2018-07-22T12:04:00.123Z,22.710876
2018-07-22T12:05:16.117Z,22.76123
2018-07-22T12:06:32.131Z,22.861938
2018-07-22T12:07:48.187Z,22.841797
2018-07-22T12:09:04.082Z,22.992859
2018-07-22T12:10:20.091Z,22.962646
2018-07-22T12:11:36.032Z,22.932434
2018-07-22T12:12:51.978Z,22.811584
2018-07-22T12:14:07.966Z,22.811584
2018-07-22T12:15:23.960Z,23.083496
2018-07-22T12:16:40.015Z,23.264771
2018-07-22T12:17:55.972Z,23.214417
2018-07-22T12:19:12.025Z,23.435974
2018-07-22T12:20:28.001Z,23.536682
2018-07-22T12:21:43.939Z,23.788452
2018-07-22T12:22:59.938Z,23.768311
2018-07-22T12:24:16.134Z,23.919373
2018-07-22T12:25:32.129Z,23.999939
2018-07-22T12:26:48.151Z,24.030151
2018-07-22T12:28:04.211Z,24.100647
2018-07-22T12:29:20.503Z,23.989868
2018-07-22T12:30:36.768Z,23.788452
2018-07-22T12:31:52.754Z,23.546753
2018-07-22T12:33:08.860Z,23.879089
2018-07-22T12:34:24.959Z,24.070435
2018-07-22T12:35:41.075Z,24.14093
2018-07-22T12:39:55.290Z,24.412842
2018-07-22T12:41:11.916Z,24.735107
2018-07-22T12:45:24.990Z,24.594116
2018-07-22T12:46:42.061Z,24.412842
2018-07-22T12:47:58.559Z,24.372559
2018-07-22T12:49:15.445Z,24.503479
2018-07-22T12:50:31.628Z,24.815674
2018-07-22T12:51:47.637Z,24.785461
2018-07-22T12:53:03.655Z,24.845886
2018-07-22T12:54:19.592Z,24.886169
2018-07-22T12:55:35.578Z,24.855957
2018-07-22T12:56:51.641Z,24.76532
2018-07-22T12:58:08.044Z,24.775391
2018-07-22T12:59:24.040Z,24.996948
2018-07-22T13:00:40.043Z,25.057373
2018-07-22T13:01:56.107Z,24.986877
2018-07-22T13:03:12.078Z,24.634399
2018-07-22T13:04:28.040Z,24.634399
2018-07-22T13:05:44.027Z,24.664612
2018-07-22T13:07:00.022Z,24.664612
2018-07-22T13:08:16.103Z,24.745178
2018-07-22T13:09:32.153Z,24.805603
2018-07-22T13:10:48.142Z,24.986877
2018-07-22T13:12:04.116Z,24.684753
2018-07-22T13:13:20.096Z,24.563904
2018-07-22T13:14:36.135Z,24.634399
2018-07-22T13:17:32.786Z,24.443054
2018-07-22T13:18:48.892Z,24.432983
2018-07-22T13:20:04.878Z,24.473267
2018-07-22T13:21:20.840Z,24.563904
2018-07-22T13:22:36.823Z,24.51355
2018-07-22T13:25:33.634Z,24.130859
2018-07-22T13:26:49.652Z,23.949585
2018-07-22T13:28:05.647Z,23.919373
2018-07-22T13:29:21.694Z,23.919373
2018-07-22T13:30:37.903Z,23.88916
2018-07-22T13:31:53.926Z,23.999939
2018-07-22T13:33:09.973Z,23.818665
2018-07-22T13:34:26.055Z,23.697815
2018-07-22T13:35:42.030Z,23.667603
2018-07-22T13:36:57.989Z,23.728027
2018-07-22T13:38:14.057Z,23.919373
2018-07-22T13:39:30.078Z,24.070435
2018-07-22T13:40:46.060Z,24.181213
2018-07-22T13:42:02.112Z,24.281921
2018-07-22T13:43:18.146Z,24.211426
2018-07-22T13:44:34.141Z,24.110718
2018-07-22T13:45:50.526Z,23.959656
2018-07-22T13:47:06.626Z,23.879089
2018-07-22T13:48:22.587Z,23.909302
2018-07-22T13:49:38.612Z,23.627319
2018-07-22T13:50:54.645Z,23.687744
2018-07-22T13:52:10.677Z,23.667603
2018-07-22T13:53:26.711Z,23.768311
2018-07-22T13:54:42.682Z,23.879089
2018-07-22T13:55:58.602Z,23.939514
2018-07-22T13:57:14.609Z,23.808594
2018-07-22T13:58:30.619Z,23.728027
2018-07-22T13:59:46.613Z,23.50647
2018-07-22T14:01:02.583Z,23.50647
2018-07-22T14:02:18.614Z,23.395691
2018-07-22T14:03:34.584Z,23.355408
2018-07-22T14:04:50.567Z,23.284912
2018-07-22T14:06:06.667Z,23.335266
2018-07-22T14:07:22.636Z,23.435974
2018-07-22T14:08:38.587Z,23.486328
2018-07-22T14:09:54.588Z,23.556824
2018-07-22T14:11:10.649Z,23.587036
2018-07-22T14:12:26.677Z,23.546753
2018-07-22T14:15:23.526Z,23.818665
2018-07-22T14:16:39.484Z,23.818665
2018-07-22T14:17:55.631Z,23.949585
2018-07-22T14:19:11.605Z,23.939514
2018-07-22T14:20:27.651Z,23.959656
2018-07-22T14:21:43.804Z,23.909302
2018-07-22T14:22:59.659Z,24.040222
2018-07-22T14:24:15.727Z,24.090576
2018-07-22T14:25:31.716Z,24.181213
2018-07-22T14:26:47.704Z,24.060364
2018-07-22T14:28:03.707Z,23.848877
2018-07-22T14:29:19.712Z,23.476257
2018-07-22T14:30:35.677Z,23.325195
2018-07-22T14:31:51.726Z,23.325195
2018-07-22T14:33:07.673Z,23.38562
2018-07-22T14:34:23.714Z,23.435974
2018-07-22T14:35:39.752Z,23.556824
2018-07-22T14:36:55.800Z,23.546753
2018-07-22T14:38:11.922Z,23.486328
2018-07-22T14:39:27.971Z,23.63739
2018-07-22T14:40:44.335Z,23.617249
2018-07-22T14:42:00.292Z,23.446045
2018-07-22T14:43:16.302Z,23.335266
2018-07-22T14:44:32.284Z,23.536682
2018-07-22T14:45:48.244Z,23.697815
2018-07-22T14:47:04.277Z,23.556824
2018-07-22T14:48:20.211Z,23.617249